Time;durP1;ratioP1;P1;durP2;ratioP2;P2;SDS_P1;SDS_P2;PMS_P1;PMS_P2;Temp;Humidity;BMP_temperature;BMP_pressure;BME280_temperature;BME280_humidity;BME280_pressure;Samples;Min_cycle;Max_cycle;Signal;HPM_P1;HPM_P2
2022/04/28 00:03:14;;;;;;;;;;;;;;;;;;8390499;28;28009;-73
2022/04/28 00:07:14;;;;;;;;;;;;;;;;;;8389633;28;29197;-73
2022/04/28 00:11:14;;;;;;;;;;;;;;;;;;8391851;28;27208;-73
2022/04/28 00:15:15;;;;;;;;;;;;;;;;;;8421950;27;29633;-72
2022/04/28 00:19:15;;;;;;;;;;;;;;;;;;8391233;28;27578;-72
2022/04/28 00:23:15;;;;;;;;;;;;;;;;;;8391917;28;27389;-73
2022/04/28 00:27:15;;;;;;;;;;;;;;;;;;8388208;27;27381;-72
2022/04/28 00:31:15;;;;;;;;;;;;;;;;;;8392591;28;27514;-72
2022/04/28 00:35:15;;;;;;;;;;;;;;;;;;8389519;28;27650;-72
2022/04/28 00:39:15;;;;;;;;;;;;;;;;;;8392475;28;27726;-73
2022/04/28 00:43:18;;;;;;;;;;;;;;;;;;8387456;28;28583;-73
2022/04/28 00:47:22;;;;;;;;;;;;;;;;;;8389235;28;28543;-73
2022/04/28 00:51:22;;;;;;;;;;;;;;;;;;8388180;28;28545;-72
2022/04/28 00:55:23;;;;;;;;;;;;;;;;;;8391071;28;27558;-72
2022/04/28 00:59:23;;;;;;;;;;;;;;;;;;8418049;27;28306;-72
2022/04/28 01:03:23;;;;;;;;;;;;;;;;;;8389191;28;28132;-72
2022/04/28 01:07:23;;;;;;;;;;;;;;;;;;8416614;27;28286;-72
2022/04/28 01:11:23;;;;;;;;;;;;;;;;;;8387493;28;27530;-72
2022/04/28 01:15:23;;;;;;;;;;;;;;;;;;8415227;27;28323;-73
2022/04/28 01:19:23;;;;;;;;;;;;;;;;;;8387871;28;27482;-73
2022/04/28 01:23:23;;;;;;;;;;;;;;;;;;8391274;28;27452;-73
2022/04/28 01:27:23;;;;;;;;;;;;;;;;;;8416456;27;29678;-72
2022/04/28 01:31:24;;;;;;;;;;;;;;;;;;8420492;27;28167;-73
2022/04/28 01:35:24;;;;;;;;;;;;;;;;;;8384223;28;27129;-73
2022/04/28 01:39:24;;;;;;;;;;;;;;;;;;8423683;27;28460;-72
2022/04/28 01:43:24;;;;;;;;;;;;;;;;;;8390551;28;27420;-72
2022/04/28 01:47:24;;;;;;;;;;;;;;;;;;8411067;27;28746;-72
2022/04/28 01:55:43;;;;;;;;;;;;;;;;;;8387428;28;27147;-73
2022/04/28 01:59:43;;;;;;;;;;;;;;;;;;8390535;28;27354;-72
2022/04/28 02:03:43;;;;;;;;;;;;;;;;;;8388480;28;29440;-72
2022/04/28 02:07:44;;;;;;;;;;;;;;;;;;8386172;28;27374;-72
2022/04/28 02:11:44;;;;;;;;;;;;;;;;;;8386293;28;29145;-73
2022/04/28 02:15:45;;;;;;;;;;;;;;;;;;8383175;28;27432;-72
2022/04/28 02:19:45;;;;;;;;;;;;;;;;;;8384751;28;27914;-73
2022/04/28 02:23:46;;;;;;;;;;;;;;;;;;8386476;28;27620;-72
2022/04/28 02:27:46;;;;;;;;;;;;;;;;;;8386618;28;27731;-72
2022/04/28 02:31:46;;;;;;;;;;;;;;;;;;8385960;28;27716;-72
2022/04/28 02:35:46;;;;;;;;;;;;;;;;;;8412525;27;29287;-72
2022/04/28 02:39:46;;;;;;;;;;;;;;;;;;8384747;28;27720;-72
2022/04/28 02:43:47;;;;;;;;;;;;;;;;;;8384017;28;27341;-72
2022/04/28 02:47:47;;;;;;;;;;;;;;;;;;8385748;28;28507;-72
2022/04/28 02:51:47;;;;;;;;;;;;;;;;;;8384433;28;27190;-73
2022/04/28 02:55:47;;;;;;;;;;;;;;;;;;8381930;28;29135;-73
2022/04/28 02:59:47;;;;;;;;;;;;;;;;;;8387926;28;27637;-72
2022/04/28 03:03:47;;;;;;;;;;;;;;;;;;8384420;28;27969;-72
2022/04/28 03:12:06;;;;;;;;;;;;;;;;;;8390267;28;27492;-72
2022/04/28 03:16:06;;;;;;;;;;;;;;;;;;8383097;28;28111;-72
2022/04/28 03:20:06;;;;;;;;;;;;;;;;;;8391756;28;27562;-72
2022/04/28 03:24:07;;;;;;;;;;;;;;;;;;8387299;28;27856;-72
2022/04/28 03:28:08;;;;;;;;;;;;;;;;;;8390563;28;27378;-72
2022/04/28 03:32:10;;;;;;;;;;;;;;;;;;8393473;28;27877;-72
2022/04/28 03:40:29;;;;;;;;;;;;;;;;;;8390145;28;27309;-72
2022/04/28 03:44:30;;;;;;;;;;;;;;;;;;8416123;27;28173;-73
2022/04/28 03:48:30;;;;;;;;;;;;;;;;;;8391493;28;27413;-72
2022/04/28 03:52:30;;;;;;;;;;;;;;;;;;8385150;28;29791;-72
2022/04/28 03:56:31;;;;;;;;;;;;;;;;;;8384743;28;27459;-72
2022/04/28 04:00:31;;;;;;;;;;;;;;;;;;8387087;28;28073;-72
2022/04/28 04:04:31;;;;;;;;;;;;;;;;;;8389482;28;29466;-72
2022/04/28 04:08:31;;;;;;;;;;;;;;;;;;8383923;28;27638;-72
2022/04/28 04:12:31;;;;;;;;;;;;;;;;;;8390532;28;27208;-72
2022/04/28 04:16:32;;;;;;;;;;;;;;;;;;8385961;27;28108;-72
2022/04/28 04:20:32;;;;;;;;;;;;;;;;;;8393230;28;27800;-72
2022/04/28 04:24:32;;;;;;;;;;;;;;;;;;8384521;28;28014;-72
2022/04/28 04:28:32;;;;;;;;;;;;;;;;;;8391568;28;27701;-72
2022/04/28 04:32:32;;;;;;;;;;;;;;;;;;8392040;28;28265;-72
2022/04/28 04:36:32;;;;;;;;;;;;;;;;;;8385669;28;27440;-72
2022/04/28 04:40:33;;;;;;;;;;;;;;;;;;8419415;27;28482;-72
2022/04/28 04:44:33;;;;;;;;;;;;;;;;;;8387210;28;27556;-72
2022/04/28 04:48:33;;;;;;;;;;;;;;;;;;8388369;28;27543;-72
2022/04/28 04:52:33;;;;;;;;;;;;;;;;;;8386444;28;28482;-72
2022/04/28 04:56:33;;;;;;;;;;;;;;;;;;8385341;28;27749;-72
2022/04/28 05:00:33;;;;;;;;;;;;;;;;;;8386669;28;28426;-72
2022/04/28 05:04:33;;;;;;;;;;;;;;;;;;8384659;28;27702;-72
2022/04/28 05:08:34;;;;;;;;;;;;;;;;;;8393819;28;28330;-72
2022/04/28 05:12:34;;;;;;;;;;;;;;;;;;8415007;27;28753;-73
2022/04/28 05:16:34;;;;;;;;;;;;;;;;;;8386632;28;27833;-73
2022/04/28 05:20:34;;;;;;;;;;;;;;;;;;8389346;28;27476;-73
2022/04/28 05:24:34;;;;;;;;;;;;;;;;;;8386270;28;27769;-72
2022/04/28 05:28:34;;;;;;;;;;;;;;;;;;8389450;28;27409;-72
2022/04/28 05:32:34;;;;;;;;;;;;;;;;;;8387431;28;27649;-72
2022/04/28 05:36:34;;;;;;;;;;;;;;;;;;8384222;28;27485;-72
2022/04/28 05:40:34;;;;;;;;;;;;;;;;;;8387703;28;27288;-72
2022/04/28 05:48:54;;;;;;;;;;;;;;;;;;8382449;28;28424;-72
2022/04/28 05:52:54;;;;;;;;;;;;;;;;;;8386069;28;27929;-72
2022/04/28 05:56:54;;;;;;;;;;;;;;;;;;8378631;28;28401;-72
2022/04/28 06:00:54;;;;;;;;;;;;;;;;;;8386432;28;28101;-72
2022/04/28 06:04:54;;;;;;;;;;;;;;;;;;8414961;27;28328;-72
2022/04/28 06:08:56;;;;;;;;;;;;;;;;;;8387453;28;27167;-72
2022/04/28 06:12:56;;;;;;;;;;;;;;;;;;8386316;28;27923;-72
2022/04/28 06:16:57;;;;;;;;;;;;;;;;;;8384575;28;27499;-72
2022/04/28 06:20:57;;;;;;;;;;;;;;;;;;8385981;28;27525;-72
2022/04/28 06:24:58;;;;;;;;;;;;;;;;;;8388468;28;29869;-73
2022/04/28 06:28:58;;;;;;;;;;;;;;;;;;8385642;28;27682;-73
2022/04/28 06:32:59;;;;;;;;;;;;;;;;;;8383513;28;27490;-72
2022/04/28 06:36:59;;;;;;;;;;;;;;;;;;8382419;28;27465;-72
2022/04/28 06:40:59;;;;;;;;;;;;;;;;;;8387170;28;29501;-72
2022/04/28 06:44:59;;;;;;;;;;;;;;;;;;8386325;28;28246;-73
2022/04/28 06:49:00;;;;;;;;;;;;;;;;;;8385388;28;27758;-73
2022/04/28 06:53:00;;;;;;;;;;;;;;;;;;8419244;27;28832;-73
2022/04/28 06:57:00;;;;;;;;;;;;;;;;;;8415374;27;29195;-73
2022/04/28 07:01:01;;;;;;;;;;;;;;;;;;8393264;28;28215;-73
2022/04/28 07:05:01;;;;;;;;;;;;;;;;;;8388404;28;28100;-73
2022/04/28 07:09:01;;;;;;;;;;;;;;;;;;8380862;28;29200;-73
2022/04/28 07:13:02;;;;;;;;;;;;;;;;;;8412930;27;29683;-73
2022/04/28 07:17:02;;;;;;;;;;;;;;;;;;8386028;28;27721;-73
2022/04/28 07:21:02;;;;;;;;;;;;;;;;;;8380799;28;27387;-73
2022/04/28 07:25:02;;;;;;;;;;;;;;;;;;8386510;28;27520;-73
2022/04/28 07:29:03;;;;;;;;;;;;;;;;;;8387235;28;27513;-73
2022/04/28 07:33:03;;;;;;;;;;;;;;;;;;8414988;27;28351;-73
2022/04/28 07:37:04;;;;;;;;;;;;;;;;;;8384537;28;27371;-73
2022/04/28 07:41:04;;;;;;;;;;;;;;;;;;8382454;28;27425;-73
2022/04/28 07:45:04;;;;;;;;;;;;;;;;;;8385037;28;27688;-73
2022/04/28 07:49:04;;;;;;;;;;;;;;;;;;8388792;28;27518;-73
2022/04/28 07:53:04;;;;;;;;;;;;;;;;;;8417566;27;28621;-73
2022/04/28 07:57:04;;;;;;;;;;;;;;;;;;8416709;27;28418;-73
2022/04/28 08:01:04;;;;;;;;;;;;;;;;;;8385424;28;27721;-72
2022/04/28 08:05:04;;;;;;;;;;;;;;;;;;8385591;28;28026;-73
2022/04/28 08:09:05;;;;;;;;;;;;;;;;;;8382372;28;28304;-72
2022/04/28 08:13:05;;;;;;;;;;;;;;;;;;8380111;28;29196;-73
2022/04/28 08:17:05;;;;;;;;;;;;;;;;;;8379402;28;28342;-73
2022/04/28 08:21:26;;;;;;;;;;;;;;;;;;8499924;22;27538;-73
2022/04/28 08:25:25;;;;;;;;;;;;;;;;;;8381359;28;27615;-72
2022/04/28 08:29:25;;;;;;;;;;;;;;;;;;8353030;28;29190;-72
2022/04/28 08:33:26;;;;;;;;;;;;;;;;;;8355374;28;27366;-72
2022/04/28 08:37:26;;;;;;;;;;;;;;;;;;8333717;28;28169;-72
2022/04/28 08:41:26;;;;;;;;;;;;;;;;;;8329586;28;29154;-72
2022/04/28 08:45:26;;;;;;;;;;;;;;;;;;8348549;28;28356;-72
2022/04/28 08:49:26;;;;;;;;;;;;;;;;;;8351236;28;27412;-72
2022/04/28 08:53:26;;;;;;;;;;;;;;;;;;8334679;28;29461;-73
2022/04/28 08:57:26;;;;;;;;;;;;;;;;;;8346999;28;27645;-72
2022/04/28 09:01:27;;;;;;;;;;;;;;;;;;8353587;28;28237;-72
2022/04/28 09:05:27;;;;;;;;;;;;;;;;;;8350614;28;27397;-72
2022/04/28 09:09:28;;;;;;;;;;;;;;;;;;8352659;28;27481;-72
2022/04/28 09:17:47;;;;;;;;;;;;;;;;;;8350251;28;27643;-72
2022/04/28 09:21:47;;;;;;;;;;;;;;;;;;8334542;28;28685;-72
2022/04/28 09:25:47;;;;;;;;;;;;;;;;;;8348998;28;27702;-72
2022/04/28 09:29:47;;;;;;;;;;;;;;;;;;8338663;28;28894;-73
2022/04/28 09:33:48;;;;;;;;;;;;;;;;;;8352445;28;27456;-72
2022/04/28 09:37:48;;;;;;;;;;;;;;;;;;8353086;28;27584;-73
2022/04/28 09:46:08;;;;;;;;;;;;;;;;;;8346566;28;47686;-73
2022/04/28 09:50:09;;;;;;;;;;;;;;;;;;8349289;28;27546;-72
2022/04/28 09:54:09;;;;;;;;;;;;;;;;;;8346955;28;27481;-72
2022/04/28 09:58:09;;;;;;;;;;;;;;;;;;8351485;28;27881;-72
2022/04/28 10:02:09;;;;;;;;;;;;;;;;;;8350537;28;27873;-73
2022/04/28 10:06:09;;;;;;;;;;;;;;;;;;8326327;28;29428;-72
2022/04/28 10:10:09;;;;;;;;;;;;;;;;;;8331584;28;28353;-73
2022/04/28 10:14:10;;;;;;;;;;;;;;;;;;8339576;28;27523;-73
2022/04/28 10:18:10;;;;;;;;;;;;;;;;;;8347622;28;28280;-73
2022/04/28 10:22:10;;;;;;;;;;;;;;;;;;8345490;28;28044;-72
2022/04/28 10:34:48;;;;;;;;;;;;;;;;;;8343686;28;27498;-72
2022/04/28 10:38:48;;;;;;;;;;;;;;;;;;8349578;28;27761;-73
2022/04/28 10:42:48;;;;;;;;;;;;;;;;;;8347626;28;28082;-73
2022/04/28 10:46:49;;;;;;;;;;;;;;;;;;8341892;28;27738;-72
2022/04/28 10:50:49;;;;;;;;;;;;;;;;;;8347802;28;28234;-73
2022/04/28 10:54:49;;;;;;;;;;;;;;;;;;8342325;28;27444;-73
2022/04/28 10:58:49;;;;;;;;;;;;;;;;;;8348504;28;27614;-72
2022/04/28 11:02:49;;;;;;;;;;;;;;;;;;8348799;28;27969;-72
2022/04/28 11:06:49;;;;;;;;;;;;;;;;;;8336051;28;28352;-72
2022/04/28 11:10:49;;;;;;;;;;;;;;;;;;8328919;28;28385;-73
2022/04/28 11:14:50;;;;;;;;;;;;;;;;;;8340603;28;27541;-72
2022/04/28 11:18:53;;;;;;;;;;;;;;;;;;8339786;28;27417;-72
2022/04/28 11:22:54;;;;;;;;;;;;;;;;;;8329071;28;28188;-73
2022/04/28 11:26:55;;;;;;;;;;;;;;;;;;8338732;28;27950;-72
2022/04/28 11:30:55;;;;;;;;;;;;;;;;;;8346631;28;27196;-72
2022/04/28 11:34:55;;;;;;;;;;;;;;;;;;8345362;28;28456;-72
2022/04/28 11:38:55;;;;;;;;;;;;;;;;;;8349792;28;28358;-73
2022/04/28 11:42:56;;;;;;;;;;;;;;;;;;8349325;28;28026;-72
2022/04/28 11:46:59;;;;;;;;;;;;;;;;;;8342343;28;27415;-72
2022/04/28 11:50:59;;;;;;;;;;;;;;;;;;8352824;28;28299;-72
2022/04/28 11:54:59;;;;;;;;;;;;;;;;;;8344962;28;27377;-72
2022/04/28 11:58:59;;;;;;;;;;;;;;;;;;8351684;28;27520;-72
2022/04/28 12:03:00;;;;;;;;;;;;;;;;;;8351699;28;27509;-72
2022/04/28 12:07:00;;;;;;;;;;;;;;;;;;8345685;28;28032;-72
2022/04/28 12:15:19;;;;;;;;;;;;;;;;;;8343501;28;27653;-72
2022/04/28 12:19:19;;;;;;;;;;;;;;;;;;8349621;28;27750;-72
2022/04/28 12:23:19;;;;;;;;;;;;;;;;;;8348923;28;27418;-72
2022/04/28 12:27:20;;;;;;;;;;;;;;;;;;8326124;28;28291;-72
2022/04/28 12:31:20;;;;;;;;;;;;;;;;;;8350865;28;27155;-73
2022/04/28 12:35:20;;;;;;;;;;;;;;;;;;8326789;28;28442;-72
2022/04/28 12:39:21;;;;;;;;;;;;;;;;;;8345855;28;27777;-72
2022/04/28 12:43:21;;;;;;;;;;;;;;;;;;8347886;28;28354;-73
2022/04/28 12:47:21;;;;;;;;;;;;;;;;;;8344144;28;28050;-72
2022/04/28 12:51:21;;;;;;;;;;;;;;;;;;8348701;28;27463;-72
2022/04/28 12:55:22;;;;;;;;;;;;;;;;;;8340819;28;27760;-72
2022/04/28 12:59:27;;;;;;;;;;;;;;;;;;8351108;28;27393;-73
2022/04/28 13:03:28;;;;;;;;;;;;;;;;;;8348326;28;28515;-73
2022/04/28 13:07:28;;;;;;;;;;;;;;;;;;8340900;28;28310;-73
2022/04/28 13:11:28;;;;;;;;;;;;;;;;;;8346881;28;27663;-73
2022/04/28 13:15:28;;;;;;;;;;;;;;;;;;8343903;28;27765;-73
2022/04/28 13:19:28;;;;;;;;;;;;;;;;;;8439294;22;27431;-73
2022/04/28 13:23:31;;;;;;;;;;;;;;;;;;8461005;27;28307;-72
2022/04/28 13:27:31;;;;;;;;;;;;;;;;;;8469486;27;28229;-72
2022/04/28 13:31:31;;;;;;;;;;;;;;;;;;8458138;27;27477;-72
2022/04/28 13:35:32;;;;;;;;;;;;;;;;;;8452926;27;28162;-72
2022/04/28 13:39:32;;;;;;;;;;;;;;;;;;8454771;27;27463;-73
2022/04/28 13:43:32;;;;;;;;;;;;;;;;;;8431387;27;28230;-73
2022/04/28 13:47:32;;;;;;;;;;;;;;;;;;8451191;27;27387;-72
2022/04/28 13:51:32;;;;;;;;;;;;;;;;;;8455135;27;27394;-72
2022/04/28 13:55:32;;;;;;;;;;;;;;;;;;8450934;27;27350;-72
2022/04/28 13:59:32;;;;;;;;;;;;;;;;;;8459814;27;27779;-72
2022/04/28 14:03:32;;;;;;;;;;;;;;;;;;8455443;27;27467;-73
2022/04/28 14:07:36;;;;;;;;;;;;;;;;;;8450457;27;28906;-72
2022/04/28 14:11:36;;;;;;;;;;;;;;;;;;8456922;27;27497;-73
2022/04/28 14:15:36;;;;;;;;;;;;;;;;;;8455503;27;29286;-73
2022/04/28 14:19:36;;;;;;;;;;;;;;;;;;8456505;27;28325;-72
2022/04/28 14:23:36;;;;;;;;;;;;;;;;;;8457630;27;27587;-73
2022/04/28 14:27:37;;;;;;;;;;;;;;;;;;8432658;27;28347;-73
2022/04/28 14:31:37;;;;;;;;;;;;;;;;;;8452362;27;29232;-73
2022/04/28 14:35:38;;;;;;;;;;;;;;;;;;8451040;27;27316;-72
2022/04/28 14:39:38;;;;;;;;;;;;;;;;;;8438036;27;28486;-72
2022/04/28 14:43:38;;;;;;;;;;;;;;;;;;8456191;27;27369;-72
2022/04/28 14:47:38;;;;;;;;;;;;;;;;;;8451698;27;28366;-72
2022/04/28 14:55:57;;;;;;;;;;;;;;;;;;8447963;27;27697;-73
2022/04/28 14:59:57;;;;;;;;;;;;;;;;;;8457727;27;27877;-73
2022/04/28 15:03:57;;;;;;;;;;;;;;;;;;8435454;27;29119;-73
2022/04/28 15:07:57;;;;;;;;;;;;;;;;;;8452995;27;27439;-73
2022/04/28 15:11:57;;;;;;;;;;;;;;;;;;8459178;27;27468;-73
2022/04/28 15:15:57;;;;;;;;;;;;;;;;;;8450850;27;28056;-72
2022/04/28 15:19:58;;;;;;;;;;;;;;;;;;8441017;27;28539;-73
2022/04/28 15:23:58;;;;;;;;;;;;;;;;;;8451319;27;27654;-72
2022/04/28 15:27:58;;;;;;;;;;;;;;;;;;8453417;27;28614;-73
2022/04/28 15:31:58;;;;;;;;;;;;;;;;;;8451433;27;28197;-73
2022/04/28 15:35:58;;;;;;;;;;;;;;;;;;8453060;27;28218;-73
2022/04/28 15:39:59;;;;;;;;;;;;;;;;;;8459442;27;27562;-73
2022/04/28 15:44:02;;;;;;;;;;;;;;;;;;8440220;27;28369;-72
2022/04/28 15:48:02;;;;;;;;;;;;;;;;;;8451297;27;27911;-72
2022/04/28 15:52:03;;;;;;;;;;;;;;;;;;8439715;27;28394;-73
2022/04/28 15:56:03;;;;;;;;;;;;;;;;;;8457426;27;27997;-72
2022/04/28 16:00:04;;;;;;;;;;;;;;;;;;8457961;27;27960;-73
2022/04/28 16:04:04;;;;;;;;;;;;;;;;;;8455927;27;27651;-73
2022/04/28 16:08:04;;;;;;;;;;;;;;;;;;8441242;27;28387;-73
2022/04/28 16:12:04;;;;;;;;;;;;;;;;;;8459217;27;27280;-74
2022/04/28 16:16:05;;;;;;;;;;;;;;;;;;8449790;27;28264;-73
2022/04/28 16:20:05;;;;;;;;;;;;;;;;;;8456003;27;29499;-73
2022/04/28 16:24:05;;;;;;;;;;;;;;;;;;8456234;27;28306;-72
2022/04/28 16:28:05;;;;;;;;;;;;;;;;;;8460875;27;27429;-73
2022/04/28 16:32:06;;;;;;;;;;;;;;;;;;8458262;27;27819;-72
2022/04/28 16:36:06;;;;;;;;;;;;;;;;;;8446348;27;28231;-72
2022/04/28 16:40:06;;;;;;;;;;;;;;;;;;8444447;27;30461;-72
2022/04/28 16:44:06;;;;;;;;;;;;;;;;;;8447646;27;29939;-73
2022/04/28 16:48:06;;;;;;;;;;;;;;;;;;8450909;27;27437;-73
2022/04/28 16:52:07;;;;;;;;;;;;;;;;;;8437351;27;28035;-73
2022/04/28 16:56:07;;;;;;;;;;;;;;;;;;8443511;27;27898;-73
2022/04/28 17:00:08;;;;;;;;;;;;;;;;;;8455004;27;28373;-73
2022/04/28 17:04:15;;;;;;;;;;;;;;;;;;8430798;27;29746;-73
2022/04/28 17:08:15;;;;;;;;;;;;;;;;;;8459635;27;27335;-72
2022/04/28 17:12:15;;;;;;;;;;;;;;;;;;8452341;27;27346;-72
2022/04/28 17:16:15;;;;;;;;;;;;;;;;;;8444119;27;28670;-72
2022/04/28 17:20:16;;;;;;;;;;;;;;;;;;8431351;27;28220;-73
2022/04/28 17:24:16;;;;;;;;;;;;;;;;;;8444294;27;28369;-72
2022/04/28 17:28:16;;;;;;;;;;;;;;;;;;8456989;27;27540;-72
2022/04/28 17:32:16;;;;;;;;;;;;;;;;;;8429946;27;28171;-73
2022/04/28 17:36:16;;;;;;;;;;;;;;;;;;8450301;27;27957;-72
2022/04/28 17:40:18;;;;;;;;;;;;;;;;;;8457852;27;27713;-72
2022/04/28 17:44:18;;;;;;;;;;;;;;;;;;8448547;27;27377;-72
2022/04/28 17:48:18;;;;;;;;;;;;;;;;;;8435569;27;28238;-72
2022/04/28 17:52:18;;;;;;;;;;;;;;;;;;8456455;27;27302;-72
2022/04/28 18:00:37;;;;;;;;;;;;;;;;;;8456002;27;27401;-72
2022/04/28 18:04:37;;;;;;;;;;;;;;;;;;8426951;27;28711;-72
2022/04/28 18:08:37;;;;;;;;;;;;;;;;;;8452291;27;27681;-72
2022/04/28 18:12:38;;;;;;;;;;;;;;;;;;8451678;27;27154;-73
2022/04/28 18:16:38;;;;;;;;;;;;;;;;;;8444371;27;27506;-72
2022/04/28 18:20:38;;;;;;;;;;;;;;;;;;8451715;27;27456;-73
2022/04/28 18:24:38;;;;;;;;;;;;;;;;;;8422544;27;28546;-72
2022/04/28 18:28:38;;;;;;;;;;;;;;;;;;8452726;27;27510;-72
2022/04/28 18:32:39;;;;;;;;;;;;;;;;;;8430562;27;28451;-72
2022/04/28 18:45:16;;;;;;;;;;;;;;;;;;8449209;27;28331;-73
2022/04/28 18:49:17;;;;;;;;;;;;;;;;;;8437412;27;28172;-73
2022/04/28 18:53:17;;;;;;;;;;;;;;;;;;8452890;27;27956;-72
2022/04/28 18:57:20;;;;;;;;;;;;;;;;;;8448248;27;28154;-72
2022/04/28 19:01:20;;;;;;;;;;;;;;;;;;8453590;27;27808;-73
2022/04/28 19:05:20;;;;;;;;;;;;;;;;;;8448467;27;27108;-73
2022/04/28 19:09:21;;;;;;;;;;;;;;;;;;8454789;27;27574;-72
2022/04/28 19:13:21;;;;;;;;;;;;;;;;;;8450060;27;27391;-72
2022/04/28 19:17:22;;;;;;;;;;;;;;;;;;8449849;27;27541;-72
2022/04/28 19:21:22;;;;;;;;;;;;;;;;;;8454683;27;27759;-72
2022/04/28 19:25:22;;;;;;;;;;;;;;;;;;8449690;27;27725;-72
2022/04/28 19:29:23;;;;;;;;;;;;;;;;;;8435371;27;28501;-72
2022/04/28 19:33:23;;;;;;;;;;;;;;;;;;8454088;27;27940;-72
2022/04/28 19:37:23;;;;;;;;;;;;;;;;;;8449096;27;28085;-73
2022/04/28 19:41:23;;;;;;;;;;;;;;;;;;8453173;27;27468;-72
2022/04/28 19:45:23;;;;;;;;;;;;;;;;;;8442527;27;28024;-72
2022/04/28 19:49:23;;;;;;;;;;;;;;;;;;8435631;27;28205;-72
2022/04/28 19:53:23;;;;;;;;;;;;;;;;;;8453858;27;28364;-72
2022/04/28 19:57:24;;;;;;;;;;;;;;;;;;8447677;27;27736;-72
2022/04/28 20:01:24;;;;;;;;;;;;;;;;;;8450369;27;27519;-72
2022/04/28 20:05:24;;;;;;;;;;;;;;;;;;8438103;27;28476;-72
2022/04/28 20:09:24;;;;;;;;;;;;;;;;;;8437221;27;28341;-72
2022/04/28 20:13:24;;;;;;;;;;;;;;;;;;8451350;27;27816;-72
2022/04/28 20:17:25;;;;;;;;;;;;;;;;;;8444960;27;27633;-72
2022/04/28 20:21:25;;;;;;;;;;;;;;;;;;8447428;27;28782;-72
2022/04/28 20:25:25;;;;;;;;;;;;;;;;;;8423373;27;29505;-72
2022/04/28 20:29:25;;;;;;;;;;;;;;;;;;8451503;27;27819;-72
2022/04/28 20:33:25;;;;;;;;;;;;;;;;;;8447469;27;27140;-72
2022/04/28 20:37:25;;;;;;;;;;;;;;;;;;8444775;27;28155;-72
2022/04/28 20:41:25;;;;;;;;;;;;;;;;;;8453539;27;27405;-72
2022/04/28 20:45:25;;;;;;;;;;;;;;;;;;8445084;27;27913;-72
2022/04/28 20:49:25;;;;;;;;;;;;;;;;;;8440332;27;28522;-73
2022/04/28 20:53:26;;;;;;;;;;;;;;;;;;8452775;27;27207;-72
2022/04/28 20:57:29;;;;;;;;;;;;;;;;;;8443268;27;27543;-73
2022/04/28 21:01:29;;;;;;;;;;;;;;;;;;8434618;27;28217;-72
2022/04/28 21:05:31;;;;;;;;;;;;;;;;;;8447491;27;27616;-72
2022/04/28 21:09:31;;;;;;;;;;;;;;;;;;8436143;27;28663;-73
2022/04/28 21:13:31;;;;;;;;;;;;;;;;;;8429735;27;28177;-72
2022/04/28 21:17:31;;;;;;;;;;;;;;;;;;8442240;27;27865;-72
2022/04/28 21:21:32;;;;;;;;;;;;;;;;;;8432695;27;28509;-72
2022/04/28 21:25:32;;;;;;;;;;;;;;;;;;8409213;27;28188;-72
2022/04/28 21:29:32;;;;;;;;;;;;;;;;;;8425390;27;28192;-72
2022/04/28 21:33:33;;;;;;;;;;;;;;;;;;8435929;27;28670;-72
2022/04/28 21:37:33;;;;;;;;;;;;;;;;;;8444167;27;27745;-72
2022/04/28 21:41:34;;;;;;;;;;;;;;;;;;8449912;27;27320;-72
2022/04/28 21:45:35;;;;;;;;;;;;;;;;;;8445348;27;27342;-72
2022/04/28 21:49:36;;;;;;;;;;;;;;;;;;8426439;27;29541;-72
2022/04/28 21:53:36;;;;;;;;;;;;;;;;;;8445470;27;27432;-72
2022/04/28 21:57:36;;;;;;;;;;;;;;;;;;8438564;27;28042;-72
2022/04/28 22:01:36;;;;;;;;;;;;;;;;;;8449060;27;27696;-72
2022/04/28 22:14:14;;;;;;;;;;;;;;;;;;8439062;27;27592;-72
2022/04/28 22:18:14;;;;;;;;;;;;;;;;;;8449918;27;27280;-72
2022/04/28 22:22:14;;;;;;;;;;;;;;;;;;8448130;27;28409;-72
2022/04/28 22:26:14;;;;;;;;;;;;;;;;;;8444495;27;27834;-71
2022/04/28 22:30:14;;;;;;;;;;;;;;;;;;8429478;27;29135;-72
2022/04/28 22:34:14;;;;;;;;;;;;;;;;;;8443188;27;29537;-72
2022/04/28 22:38:15;;;;;;;;;;;;;;;;;;8449390;27;27812;-72
2022/04/28 22:42:15;;;;;;;;;;;;;;;;;;8426737;27;28152;-72
2022/04/28 22:46:15;;;;;;;;;;;;;;;;;;8441932;27;27524;-72
2022/04/28 22:50:15;;;;;;;;;;;;;;;;;;8447971;27;27339;-72
2022/04/28 22:54:15;;;;;;;;;;;;;;;;;;8440577;27;28072;-72
2022/04/28 22:58:15;;;;;;;;;;;;;;;;;;8427148;27;28435;-72
2022/04/28 23:02:16;;;;;;;;;;;;;;;;;;8446608;27;27880;-72
2022/04/28 23:06:16;;;;;;;;;;;;;;;;;;8443610;27;27726;-72
2022/04/28 23:10:16;;;;;;;;;;;;;;;;;;8430312;27;28345;-72
2022/04/28 23:14:17;;;;;;;;;;;;;;;;;;8441265;27;27867;-72
2022/04/28 23:18:17;;;;;;;;;;;;;;;;;;8445908;27;27761;-72
2022/04/28 23:22:17;;;;;;;;;;;;;;;;;;8448760;27;27445;-72
2022/04/28 23:26:17;;;;;;;;;;;;;;;;;;8429642;27;29435;-72
2022/04/28 23:30:17;;;;;;;;;;;;;;;;;;8453069;27;28059;-72
2022/04/28 23:38:37;;;;;;;;;;;;;;;;;;8453465;27;27158;-72
2022/04/28 23:42:39;;;;;;;;;;;;;;;;;;8452935;27;27631;-72
2022/04/28 23:46:39;;;;;;;;;;;;;;;;;;8445498;27;28224;-72
2022/04/28 23:50:39;;;;;;;;;;;;;;;;;;8454413;27;27630;-72
2022/04/28 23:54:52;;;;;;;;;;;;;;;;;;8448931;27;27429;-72
2022/04/28 23:58:52;;;;;;;;;;;;;;;;;;8452828;27;27346;-72
